createdAt,value
2023-04-05T00:00:34.056Z,2.25
2023-04-05T00:03:02.232Z,2.70
2023-04-05T00:05:34.688Z,2.10
2023-04-05T00:08:03.631Z,2.05
2023-04-05T00:10:32.719Z,1.73
2023-04-05T00:13:01.215Z,2.10
2023-04-05T00:15:29.595Z,2.20
2023-04-05T00:17:58.365Z,2.70
2023-04-05T00:20:26.565Z,2.15
2023-04-05T00:22:56.301Z,2.53
2023-04-05T00:25:24.690Z,2.10
2023-04-05T00:27:52.795Z,2.53
2023-04-05T00:30:21.768Z,2.10
2023-04-05T00:32:50.732Z,2.17
2023-04-05T00:35:19.496Z,2.05
2023-04-05T00:37:47.871Z,2.30
2023-04-05T00:40:17.873Z,2.27
2023-04-05T00:42:45.935Z,2.30
2023-04-05T00:45:15.337Z,2.53
2023-04-05T00:47:44.533Z,2.38
2023-04-05T00:50:13.895Z,2.53
2023-04-05T00:52:43.208Z,2.23
2023-04-05T00:55:12.269Z,2.10
2023-04-05T00:57:42.541Z,2.20
2023-04-05T01:00:12.047Z,2.08
2023-04-05T01:02:47.085Z,2.30
2023-04-05T01:05:37.037Z,2.38
2023-04-05T01:08:13.692Z,2.40
2023-04-05T01:10:49.546Z,2.40
2023-04-05T01:13:19.425Z,2.25
2023-04-05T01:15:48.099Z,2.30
2023-04-05T01:18:16.634Z,2.20
2023-04-05T01:20:52.995Z,2.45
2023-04-05T01:23:38.935Z,2.43
2023-04-05T01:26:30.580Z,2.43
2023-04-05T01:29:29.906Z,2.20
2023-04-05T01:32:04.520Z,2.57
2023-04-05T01:34:41.022Z,2.20
2023-04-05T01:37:13.162Z,2.43
2023-04-05T01:39:41.541Z,2.80
2023-04-05T01:42:09.670Z,2.65
2023-04-05T01:44:37.778Z,2.27
2023-04-05T01:47:07.294Z,2.40
2023-04-05T01:49:35.385Z,2.47
2023-04-05T01:52:03.899Z,2.73
2023-04-05T01:54:32.304Z,2.27
2023-04-05T01:57:00.462Z,2.33
2023-04-05T01:59:28.905Z,2.80
2023-04-05T02:01:57.274Z,2.33
2023-04-05T02:04:27.224Z,2.30
2023-04-05T02:06:55.631Z,1.73
2023-04-05T02:09:24.246Z,1.90
2023-04-05T02:11:52.328Z,1.90
2023-04-05T02:14:20.722Z,1.80
2023-04-05T02:16:48.888Z,1.80
2023-04-05T02:19:23.385Z,2.20
2023-04-05T02:21:54.188Z,1.87
2023-04-05T02:24:22.842Z,1.77
2023-04-05T02:26:51.560Z,2.10
2023-04-05T02:29:19.620Z,1.67
2023-04-05T02:31:47.759Z,1.90
2023-04-05T02:34:16.121Z,1.70
2023-04-05T02:36:44.240Z,1.57
2023-04-05T02:39:14.407Z,1.83
2023-04-05T02:41:42.669Z,1.70
2023-04-05T02:44:10.954Z,2.17
2023-04-05T02:46:39.345Z,1.87
2023-04-05T02:49:07.871Z,1.67
2023-04-05T02:51:36.319Z,1.93
2023-04-05T02:54:05.060Z,1.93
2023-04-05T02:56:34.497Z,2.00
2023-04-05T02:59:02.917Z,1.83
2023-04-05T03:01:32.619Z,1.70
2023-04-05T03:04:01.470Z,2.10
2023-04-05T03:06:31.655Z,1.97
2023-04-05T03:09:02.169Z,2.00
2023-04-05T03:11:30.407Z,1.83
2023-04-05T03:14:00.658Z,1.70
2023-04-05T03:16:28.873Z,2.10
2023-04-05T03:18:57.459Z,3.30
2023-04-05T03:21:26.849Z,2.43
2023-04-05T03:23:55.825Z,2.60
2023-04-05T03:26:24.809Z,2.13
2023-04-05T03:28:53.227Z,2.07
2023-04-05T03:31:23.117Z,1.93
2023-04-05T03:33:51.527Z,2.03
2023-04-05T03:36:20.110Z,2.30
2023-04-05T03:38:48.438Z,2.13
2023-04-05T03:41:16.739Z,2.20
2023-04-05T03:43:45.256Z,2.47
2023-04-05T03:46:13.362Z,2.80
2023-04-05T03:48:43.198Z,2.60
2023-04-05T03:51:12.163Z,2.90
2023-04-05T03:53:41.054Z,2.47
2023-04-05T03:56:09.610Z,2.43
2023-04-05T03:58:37.985Z,3.07
2023-04-05T04:01:06.806Z,2.60
2023-04-05T04:03:37.387Z,2.20
2023-04-05T04:06:08.379Z,2.53
2023-04-05T04:08:36.508Z,2.57
2023-04-05T04:11:05.498Z,2.40
2023-04-05T04:13:33.628Z,1.83
2023-04-05T04:16:02.030Z,1.93
2023-04-05T04:18:30.265Z,2.30
2023-04-05T04:21:01.140Z,1.97
2023-04-05T04:23:30.860Z,2.40
2023-04-05T04:25:58.969Z,2.37
2023-04-05T04:28:28.283Z,2.13
2023-04-05T04:30:56.518Z,2.20
2023-04-05T04:33:24.676Z,2.27
2023-04-05T04:35:55.057Z,2.03
2023-04-05T04:38:26.253Z,1.80
2023-04-05T04:40:58.613Z,1.93
2023-04-05T04:43:27.776Z,2.17
2023-04-05T04:45:56.232Z,2.43
2023-04-05T04:48:24.692Z,2.10
2023-04-05T04:50:52.806Z,2.30
2023-04-05T04:53:24.120Z,2.10
2023-04-05T04:55:52.978Z,2.17
2023-04-05T04:58:22.433Z,2.40
2023-04-05T05:00:53.467Z,2.27
2023-04-05T05:03:22.448Z,2.40
2023-04-05T05:05:52.072Z,3.50
2023-04-05T05:08:21.577Z,3.23
2023-04-05T05:10:53.411Z,3.10
2023-04-05T05:13:23.334Z,3.00
2023-04-05T05:15:52.273Z,3.10
2023-04-05T05:18:20.525Z,3.00
2023-04-05T05:20:53.237Z,2.93
2023-04-05T05:23:21.415Z,2.67
2023-04-05T05:25:49.532Z,2.57
2023-04-05T05:28:17.716Z,2.83
2023-04-05T05:30:47.211Z,2.40
2023-04-05T05:33:16.257Z,2.97
2023-04-05T05:35:44.325Z,2.73
2023-04-05T05:38:13.995Z,2.27
2023-04-05T05:40:42.456Z,2.80
2023-04-05T05:43:11.605Z,3.08
2023-04-05T05:45:39.694Z,2.93
2023-04-05T05:48:09.445Z,3.07
2023-04-05T05:50:39.831Z,3.60
2023-04-05T05:53:08.481Z,4.53
2023-04-05T05:55:36.569Z,6.10
2023-04-05T05:58:05.399Z,4.40
2023-04-05T06:00:33.490Z,4.47
2023-04-05T06:03:02.101Z,4.65
2023-04-05T06:05:31.781Z,3.60
2023-04-05T06:07:59.971Z,3.00
2023-04-05T06:10:28.379Z,3.83
2023-04-05T06:12:56.447Z,3.22
2023-04-05T06:15:24.918Z,2.97
2023-04-05T06:17:53.013Z,2.88
2023-04-05T06:20:21.242Z,3.00
2023-04-05T06:22:50.979Z,4.20
2023-04-05T06:25:19.483Z,3.65
2023-04-05T06:27:47.601Z,3.47
2023-04-05T06:30:16.272Z,4.20
2023-04-05T06:32:44.498Z,3.40
2023-04-05T06:35:13.860Z,3.15
2023-04-05T06:37:42.249Z,2.88
2023-04-05T06:40:12.234Z,3.55
2023-04-05T06:42:40.617Z,2.65
2023-04-05T06:45:10.273Z,2.58
2023-04-05T06:47:39.169Z,2.33
2023-04-05T06:50:09.000Z,2.60
2023-04-05T06:52:37.752Z,1.98
2023-04-05T06:55:06.474Z,2.15
2023-04-05T06:57:35.951Z,1.98
2023-04-05T07:00:09.245Z,1.67
2023-04-05T07:02:37.358Z,1.92
2023-04-05T07:05:06.557Z,1.67
2023-04-05T07:07:35.031Z,1.73
2023-04-05T07:10:03.188Z,1.83
2023-04-05T07:12:31.847Z,2.10
2023-04-05T07:15:02.427Z,2.00
2023-04-05T07:17:31.094Z,1.92
2023-04-05T07:19:59.221Z,1.80
2023-04-05T07:22:27.698Z,1.90
2023-04-05T07:24:56.128Z,2.20
2023-04-05T07:27:24.602Z,1.70
2023-04-05T07:29:52.717Z,2.03
2023-04-05T07:32:22.602Z,2.20
2023-04-05T07:34:50.874Z,1.80
2023-04-05T07:37:19.248Z,1.88
2023-04-05T07:39:47.628Z,2.25
2023-04-05T07:42:15.775Z,2.00
2023-04-05T07:44:43.861Z,2.10
2023-04-05T07:47:12.574Z,2.05
2023-04-05T07:49:42.076Z,2.00
2023-04-05T07:52:10.160Z,2.05
2023-04-05T07:54:39.991Z,1.75
2023-04-05T07:57:08.630Z,1.70
2023-04-05T07:59:37.174Z,2.00
2023-04-05T08:02:14.243Z,1.52
2023-04-05T08:04:44.492Z,1.80
2023-04-05T08:07:12.971Z,1.63
2023-04-05T08:09:41.735Z,1.60
2023-04-05T08:12:11.432Z,1.70
2023-04-05T08:14:39.602Z,1.30
2023-04-05T08:17:07.703Z,2.10
2023-04-05T08:19:35.872Z,1.77
2023-04-05T08:22:05.363Z,2.00
2023-04-05T08:24:33.534Z,1.65
2023-04-05T08:27:02.097Z,1.88
2023-04-05T08:29:30.496Z,1.98
2023-04-05T08:31:59.125Z,1.77
2023-04-05T08:34:27.635Z,1.80
2023-04-05T08:36:59.450Z,1.58
2023-04-05T08:39:29.094Z,1.50
2023-04-05T08:42:04.883Z,1.50
2023-04-05T08:44:33.204Z,1.52
2023-04-05T08:47:02.403Z,1.58
2023-04-05T08:49:30.996Z,1.80
2023-04-05T08:52:01.589Z,1.85
2023-04-05T08:54:31.515Z,1.30
2023-04-05T08:57:01.096Z,1.17
2023-04-05T08:59:29.518Z,1.17
2023-04-05T09:01:59.855Z,1.58
2023-04-05T09:04:33.321Z,1.60
2023-04-05T09:07:05.659Z,1.50
2023-04-05T09:09:39.175Z,1.45
2023-04-05T09:12:09.101Z,1.60
2023-04-05T09:14:39.483Z,1.70
2023-04-05T09:17:07.914Z,1.58
2023-04-05T09:19:36.322Z,1.40
2023-04-05T09:22:07.310Z,1.20
2023-04-05T09:24:41.388Z,1.13
2023-04-05T09:27:11.654Z,1.55
2023-04-05T09:29:41.288Z,1.55
2023-04-05T09:32:11.218Z,1.63
2023-04-05T09:34:41.142Z,1.35
2023-04-05T09:37:15.699Z,1.52
2023-04-05T09:39:45.894Z,1.27
2023-04-05T09:42:16.711Z,1.20
2023-04-05T09:44:52.274Z,1.70
2023-04-05T09:47:22.575Z,1.60
2023-04-05T09:49:50.705Z,1.40
2023-04-05T09:52:23.494Z,1.67
2023-04-05T09:54:54.104Z,1.23
2023-04-05T09:57:22.580Z,1.33
2023-04-05T09:59:51.150Z,1.27
2023-04-05T10:02:19.327Z,1.30
2023-04-05T10:04:48.428Z,1.45
2023-04-05T10:07:17.585Z,1.48
2023-04-05T10:09:47.658Z,1.45
2023-04-05T10:12:25.200Z,1.60
2023-04-05T10:14:53.883Z,1.67
2023-04-05T10:17:26.437Z,1.38
2023-04-05T10:20:05.957Z,1.63
2023-04-05T10:22:41.751Z,1.42
2023-04-05T10:25:23.625Z,1.27
2023-04-05T10:27:56.218Z,1.25
2023-04-05T10:30:26.426Z,1.40
2023-04-05T10:33:11.935Z,1.20
2023-04-05T10:35:51.549Z,1.60
2023-04-05T10:38:26.129Z,1.30
2023-04-05T10:40:56.872Z,1.65
2023-04-05T10:43:27.965Z,1.38
2023-04-05T10:45:58.858Z,1.50
2023-04-05T10:48:40.107Z,1.50
2023-04-05T10:51:09.488Z,1.63
2023-04-05T10:53:39.561Z,1.10
2023-04-05T10:56:08.307Z,1.60
2023-04-05T10:58:40.914Z,1.20
2023-04-05T11:01:10.616Z,1.52
2023-04-05T11:03:52.548Z,1.25
2023-04-05T11:06:32.868Z,1.33
2023-04-05T11:09:10.561Z,1.63
2023-04-05T11:11:40.889Z,1.60
2023-04-05T11:14:26.384Z,1.75
2023-04-05T11:16:57.102Z,1.63
2023-04-05T11:19:50.057Z,1.80
2023-04-05T11:22:27.619Z,1.50
2023-04-05T11:24:58.219Z,1.50
2023-04-05T11:27:28.579Z,1.73
2023-04-05T11:29:59.162Z,1.40
2023-04-05T11:32:40.340Z,1.27
2023-04-05T11:35:13.631Z,1.63
2023-04-05T11:37:59.105Z,1.13
2023-04-05T11:40:31.470Z,2.08
2023-04-05T11:43:07.916Z,1.30
2023-04-05T11:45:38.814Z,1.58
2023-04-05T11:48:08.082Z,1.30
2023-04-05T11:50:38.611Z,1.45
2023-04-05T11:53:11.173Z,1.58
2023-04-05T11:55:39.786Z,1.40
2023-04-05T11:58:15.905Z,1.50
2023-04-05T12:00:47.227Z,1.80
2023-04-05T12:03:16.224Z,1.40
2023-04-05T12:05:51.826Z,1.60
2023-04-05T12:08:20.393Z,1.42
2023-04-05T12:10:57.583Z,1.60
2023-04-05T12:13:30.172Z,1.50
2023-04-05T12:16:01.710Z,1.45
2023-04-05T12:18:32.853Z,1.58
2023-04-05T12:21:01.436Z,1.35
2023-04-05T12:23:30.312Z,1.40
2023-04-05T12:25:59.177Z,1.88
2023-04-05T12:28:27.776Z,1.33
2023-04-05T12:30:58.428Z,2.05
2023-04-05T12:33:32.879Z,1.40
2023-04-05T12:36:05.546Z,1.70
2023-04-05T12:38:33.731Z,1.50
2023-04-05T12:41:03.525Z,1.38
2023-04-05T12:43:40.246Z,1.45
2023-04-05T12:46:11.927Z,1.52
2023-04-05T12:48:43.445Z,1.40
2023-04-05T12:51:18.000Z,1.75
2023-04-05T12:53:48.147Z,2.00
2023-04-05T12:56:18.018Z,1.65
2023-04-05T12:58:50.593Z,1.42
2023-04-05T13:01:19.317Z,1.60
2023-04-05T13:03:50.057Z,1.38
2023-04-05T13:06:18.247Z,1.70
2023-04-05T13:08:46.847Z,1.77
2023-04-05T13:11:14.979Z,1.33
2023-04-05T13:13:43.242Z,1.27
2023-04-05T13:16:11.713Z,1.42
2023-04-05T13:18:39.953Z,1.33
2023-04-05T13:21:10.088Z,1.70
2023-04-05T13:23:39.817Z,1.65
2023-04-05T13:26:08.727Z,1.98
2023-04-05T13:28:37.001Z,1.70
2023-04-05T13:31:06.678Z,1.98
2023-04-05T13:33:34.924Z,1.45
2023-04-05T13:36:03.821Z,1.83
2023-04-05T13:38:33.313Z,1.38
2023-04-05T13:41:01.412Z,1.60
2023-04-05T13:43:31.533Z,1.38
2023-04-05T13:45:59.881Z,1.60
2023-04-05T13:48:27.957Z,1.48
2023-04-05T13:50:56.347Z,1.50
2023-04-05T13:53:26.612Z,1.58
2023-04-05T13:55:57.489Z,1.40
2023-04-05T13:58:26.040Z,1.38
2023-04-05T14:00:54.269Z,1.35
2023-04-05T14:03:22.853Z,1.25
2023-04-05T14:05:53.031Z,1.35
2023-04-05T14:08:22.917Z,1.50
2023-04-05T14:10:51.504Z,1.35
2023-04-05T14:13:21.107Z,1.40
2023-04-05T14:15:49.542Z,1.50
2023-04-05T14:18:17.796Z,1.15
2023-04-05T14:20:45.932Z,1.65
2023-04-05T14:23:14.768Z,1.30
2023-04-05T14:25:43.134Z,1.33
2023-04-05T14:28:11.343Z,1.60
2023-04-05T14:30:41.004Z,1.67
2023-04-05T14:33:09.771Z,1.80
2023-04-05T14:35:38.005Z,1.50
2023-04-05T14:38:06.198Z,1.67
2023-04-05T14:40:34.543Z,1.50
2023-04-05T14:43:03.165Z,1.52
2023-04-05T14:45:31.981Z,1.42
2023-04-05T14:48:01.879Z,1.60
2023-04-05T14:50:32.496Z,1.60
2023-04-05T14:53:00.794Z,1.58
2023-04-05T14:55:29.435Z,1.45
2023-04-05T14:57:57.578Z,1.45
2023-04-05T15:00:26.265Z,1.35
2023-04-05T15:02:54.631Z,1.20
2023-04-05T15:05:24.193Z,1.45
2023-04-05T15:07:52.402Z,1.67
2023-04-05T15:10:21.018Z,1.42
2023-04-05T15:12:50.156Z,1.33
2023-04-05T15:15:18.855Z,2.33
2023-04-05T15:17:47.005Z,1.60
2023-04-05T15:20:15.750Z,1.58
2023-04-05T15:22:45.395Z,1.42
2023-04-05T15:25:14.169Z,1.80
2023-04-05T15:27:42.302Z,1.60
2023-04-05T15:30:11.463Z,1.52
2023-04-05T15:32:39.713Z,1.60
2023-04-05T15:35:08.543Z,1.92
2023-04-05T15:37:36.818Z,1.60
2023-04-05T15:40:07.479Z,1.40
2023-04-05T15:42:36.183Z,1.50
2023-04-05T15:45:04.624Z,1.67
2023-04-05T15:47:32.796Z,1.40
2023-04-05T15:50:01.018Z,1.77
2023-04-05T15:52:29.252Z,1.48
2023-04-05T15:54:57.370Z,1.80
2023-04-05T15:57:27.191Z,1.23
2023-04-05T15:59:55.421Z,1.58
2023-04-05T16:02:23.664Z,1.90
2023-04-05T16:04:52.312Z,1.70
2023-04-05T16:07:20.530Z,1.60
2023-04-05T16:09:49.033Z,1.58
2023-04-05T16:12:17.347Z,1.40
2023-04-05T16:14:46.830Z,1.42
2023-04-05T16:17:15.012Z,2.20
2023-04-05T16:19:43.150Z,1.70
2023-04-05T16:22:11.536Z,1.40
2023-04-05T16:24:40.008Z,1.73
2023-04-05T16:27:08.190Z,1.45
2023-04-05T16:29:36.615Z,1.20
2023-04-05T16:32:06.235Z,1.27
2023-04-05T16:34:34.696Z,1.40
2023-04-05T16:37:02.820Z,1.25
2023-04-05T16:39:31.047Z,1.42
2023-04-05T16:42:00.276Z,1.50
2023-04-05T16:44:31.013Z,1.33
2023-04-05T16:47:00.394Z,1.60
2023-04-05T16:49:30.280Z,1.20
2023-04-05T16:51:58.408Z,1.52
2023-04-05T16:54:27.023Z,1.30
2023-04-05T16:56:55.164Z,1.33
2023-04-05T16:59:23.676Z,1.48
2023-04-05T17:01:51.855Z,1.27
2023-04-05T17:04:20.301Z,1.60
2023-04-05T17:06:49.917Z,1.58
2023-04-05T17:09:18.440Z,1.90
2023-04-05T17:11:47.284Z,1.65
2023-04-05T17:14:15.900Z,1.38
2023-04-05T17:16:44.349Z,1.50
2023-04-05T17:19:12.461Z,1.20
2023-04-05T17:21:40.690Z,1.38
2023-04-05T17:24:10.489Z,1.50
2023-04-05T17:26:38.662Z,1.23
2023-04-05T17:29:06.886Z,1.35
2023-04-05T17:31:35.379Z,1.50
2023-04-05T17:34:03.576Z,1.30
2023-04-05T17:36:32.193Z,1.80
2023-04-05T17:39:00.412Z,1.45
2023-04-05T17:41:30.203Z,1.52
2023-04-05T17:43:58.557Z,1.30
2023-04-05T17:46:40.268Z,1.55
2023-04-05T17:49:11.141Z,1.50
2023-04-05T17:51:39.666Z,2.00
2023-04-05T17:54:07.841Z,2.13
2023-04-05T17:56:38.444Z,1.63
2023-04-05T17:59:07.304Z,1.50
2023-04-05T18:01:37.554Z,1.48
2023-04-05T18:04:06.651Z,1.70
2023-04-05T18:06:35.904Z,1.90
2023-04-05T18:09:04.354Z,2.20
2023-04-05T18:11:33.000Z,2.38
2023-04-05T18:14:02.558Z,2.25
2023-04-05T18:16:32.425Z,2.78
2023-04-05T18:19:00.616Z,2.15
2023-04-05T18:21:29.048Z,1.55
2023-04-05T18:23:57.997Z,1.70
2023-04-05T18:26:26.540Z,1.65
2023-04-05T18:28:59.927Z,3.38
2023-04-05T18:31:30.490Z,3.42
2023-04-05T18:34:00.189Z,2.10
2023-04-05T18:36:28.636Z,1.88
2023-04-05T18:38:59.022Z,1.85
2023-04-05T18:41:27.991Z,1.40
2023-04-05T18:43:56.412Z,2.00
2023-04-05T18:46:24.911Z,1.77
2023-04-05T18:48:55.616Z,1.70
2023-04-05T18:51:24.741Z,1.88
2023-04-05T18:53:53.200Z,1.80
2023-04-05T18:56:21.414Z,1.55
2023-04-05T18:58:50.155Z,1.65
2023-04-05T19:01:19.924Z,3.22
2023-04-05T19:03:49.303Z,3.13
2023-04-05T19:06:19.032Z,3.15
2023-04-05T19:08:48.206Z,2.28
2023-04-05T19:11:18.539Z,3.13
2023-04-05T19:13:47.529Z,3.83
2023-04-05T19:16:17.678Z,3.53
2023-04-05T19:18:46.281Z,3.50
2023-04-05T19:21:14.520Z,2.58
2023-04-05T19:23:44.101Z,2.80
2023-04-05T19:26:12.401Z,2.75
2023-04-05T19:28:41.159Z,2.20
2023-04-05T19:31:11.409Z,1.90
2023-04-05T19:33:40.106Z,1.88
2023-04-05T19:36:08.416Z,1.67
2023-04-05T19:38:36.775Z,2.05
2023-04-05T19:41:06.690Z,2.30
2023-04-05T19:43:36.826Z,1.98
2023-04-05T19:46:09.658Z,1.58
2023-04-05T19:48:39.607Z,2.30
2023-04-05T19:51:09.344Z,2.75
2023-04-05T19:53:43.090Z,2.80
2023-04-05T19:56:18.439Z,1.83
2023-04-05T19:58:48.346Z,1.50
2023-04-05T20:01:33.984Z,2.08
2023-04-05T20:04:02.916Z,2.25
2023-04-05T20:06:33.797Z,2.03
2023-04-05T20:09:04.052Z,2.30
2023-04-05T20:11:33.873Z,3.03
2023-04-05T20:14:03.012Z,3.50
2023-04-05T20:16:32.976Z,2.97
2023-04-05T20:19:04.063Z,3.15
2023-04-05T20:21:32.547Z,3.22
2023-04-05T20:24:02.267Z,3.10
2023-04-05T20:26:32.049Z,4.05
2023-04-05T20:29:03.585Z,3.22
2023-04-05T20:31:33.468Z,3.08
2023-04-05T20:34:12.458Z,3.60
2023-04-05T20:36:48.291Z,2.63
2023-04-05T20:39:16.845Z,3.05
2023-04-05T20:41:44.987Z,2.88
2023-04-05T20:44:14.567Z,2.80
2023-04-05T20:46:43.419Z,2.83
2023-04-05T20:49:11.946Z,2.33
2023-04-05T20:51:42.678Z,2.53
2023-04-05T20:54:11.444Z,3.05
2023-04-05T20:56:39.701Z,2.60
2023-04-05T20:59:08.183Z,2.50
2023-04-05T21:01:38.713Z,1.98
2023-04-05T21:04:07.678Z,2.42
2023-04-05T21:06:37.202Z,2.13
2023-04-05T21:09:06.274Z,1.90
2023-04-05T21:11:34.632Z,2.30
2023-04-05T21:14:02.812Z,2.60
2023-04-05T21:16:31.619Z,2.40
2023-04-05T21:19:01.184Z,2.63
2023-04-05T21:21:29.336Z,2.75
2023-04-05T21:23:57.488Z,2.55
2023-04-05T21:26:25.663Z,3.30
2023-04-05T21:28:53.824Z,2.78
2023-04-05T21:31:22.249Z,2.90
2023-04-05T21:33:50.683Z,2.90
2023-04-05T21:36:20.198Z,2.70
2023-04-05T21:38:48.624Z,3.30
2023-04-05T21:41:16.745Z,2.90
2023-04-05T21:43:45.158Z,3.20
2023-04-05T21:46:13.277Z,3.40
2023-04-05T21:48:41.863Z,2.92
2023-04-05T21:51:10.024Z,2.53
2023-04-05T21:53:39.903Z,2.50
2023-04-05T21:56:08.162Z,2.20
2023-04-05T21:58:36.394Z,1.30
2023-04-05T22:01:04.671Z,1.35
2023-04-05T22:03:32.929Z,1.60
2023-04-05T22:06:02.812Z,1.10
2023-04-05T22:08:33.951Z,1.30
2023-04-05T22:11:03.944Z,1.10
2023-04-05T22:13:32.068Z,1.30
2023-04-05T22:16:00.551Z,1.30
2023-04-05T22:18:29.119Z,1.77
2023-04-05T22:20:57.272Z,1.30
2023-04-05T22:23:25.759Z,2.15
2023-04-05T22:25:54.010Z,1.42
2023-04-05T22:28:23.843Z,1.58
2023-04-05T22:30:52.006Z,1.42
2023-04-05T22:33:20.187Z,1.33
2023-04-05T22:35:48.320Z,1.33
2023-04-05T22:38:16.794Z,1.80
2023-04-05T22:40:46.662Z,2.13
2023-04-05T22:43:15.075Z,1.60
2023-04-05T22:45:45.097Z,1.50
2023-04-05T22:48:13.314Z,1.48
2023-04-05T22:50:41.908Z,1.73
2023-04-05T22:53:10.062Z,1.67
2023-04-05T22:55:40.171Z,1.80
2023-04-05T22:58:08.426Z,1.98
2023-04-05T23:00:37.961Z,1.77
2023-04-05T23:03:07.483Z,2.22
2023-04-05T23:05:37.076Z,2.40
2023-04-05T23:08:05.901Z,2.30
2023-04-05T23:10:34.067Z,2.00
2023-04-05T23:13:02.473Z,1.92
2023-04-05T23:15:30.628Z,2.10
2023-04-05T23:17:59.059Z,2.10
2023-04-05T23:20:28.692Z,2.22
2023-04-05T23:22:57.162Z,2.03
2023-04-05T23:25:25.318Z,2.40
2023-04-05T23:27:54.480Z,2.08
2023-04-05T23:30:22.929Z,2.45
2023-04-05T23:32:51.471Z,2.20
2023-04-05T23:35:19.685Z,1.50
2023-04-05T23:37:49.612Z,1.92
2023-04-05T23:40:17.895Z,1.80
2023-04-05T23:42:46.304Z,1.92
2023-04-05T23:45:14.477Z,1.80
2023-04-05T23:47:42.692Z,1.70
2023-04-05T23:50:11.902Z,1.70
2023-04-05T23:52:40.027Z,1.77
2023-04-05T23:55:10.686Z,1.87
2023-04-05T23:57:38.875Z,1.67
